createdAt,value
2019-02-03T00:00:15.993Z,38.98
2019-02-03T00:02:44.414Z,41.10
2019-02-03T00:05:13.061Z,37.45
2019-02-03T00:07:41.490Z,40.65
2019-02-03T00:10:10.409Z,40.73
2019-02-03T00:12:38.815Z,39.92
2019-02-03T00:15:11.930Z,40.65
2019-02-03T00:17:40.590Z,39.03
2019-02-03T00:20:11.063Z,40.55
2019-02-03T00:22:40.009Z,41.30
2019-02-03T00:25:09.762Z,39.92
2019-02-03T00:27:38.168Z,41.65
2019-02-03T00:30:12.055Z,39.27
2019-02-03T00:32:40.472Z,39.42
2019-02-03T00:35:09.597Z,38.20
2019-02-03T00:37:38.268Z,37.48
2019-02-03T00:40:11.913Z,39.73
2019-02-03T00:42:40.391Z,38.02
2019-02-03T00:45:11.734Z,36.35
2019-02-03T00:47:40.513Z,38.05
2019-02-03T00:50:12.408Z,39.63
2019-02-03T00:52:40.798Z,38.10
2019-02-03T00:55:12.323Z,36.13
2019-02-03T00:57:40.759Z,39.63
2019-02-03T01:00:12.681Z,38.15
2019-02-03T01:02:41.171Z,39.13
2019-02-03T01:05:12.942Z,40.10
2019-02-03T01:07:41.631Z,39.95
2019-02-03T01:10:18.939Z,37.08
2019-02-03T01:12:47.882Z,35.43
2019-02-03T01:15:16.354Z,36.73
2019-02-03T01:17:44.825Z,36.98
2019-02-03T01:20:15.947Z,38.58
2019-02-03T01:22:44.347Z,36.98
2019-02-03T01:25:15.593Z,39.83
2019-02-03T01:27:44.429Z,38.45
2019-02-03T01:30:23.863Z,36.20
2019-02-03T01:32:52.433Z,39.85
2019-02-03T01:35:20.839Z,44.80
2019-02-03T01:37:49.242Z,38.00
2019-02-03T01:40:19.672Z,38.88
2019-02-03T01:42:48.521Z,38.05
2019-02-03T01:45:18.874Z,40.48
2019-02-03T01:47:47.606Z,38.48
2019-02-03T01:50:16.439Z,39.88
2019-02-03T01:52:45.556Z,39.83
2019-02-03T01:55:22.795Z,38.45
2019-02-03T01:57:51.266Z,38.63
2019-02-03T02:00:25.017Z,37.35
2019-02-03T02:02:53.556Z,36.25
2019-02-03T02:05:22.102Z,36.73
2019-02-03T02:07:52.055Z,38.30
2019-02-03T02:10:25.956Z,37.90
2019-02-03T02:12:54.537Z,39.00
2019-02-03T02:15:23.054Z,39.88
2019-02-03T02:17:52.128Z,39.48
2019-02-03T02:20:25.343Z,35.25
2019-02-03T02:22:53.803Z,38.70
2019-02-03T02:25:22.242Z,38.70
2019-02-03T02:27:50.729Z,41.40
2019-02-03T02:30:24.214Z,37.67
2019-02-03T02:32:52.708Z,37.33
2019-02-03T02:35:21.122Z,38.08
2019-02-03T02:37:49.597Z,39.10
2019-02-03T02:40:25.324Z,38.08
2019-02-03T02:42:54.217Z,35.88
2019-02-03T02:45:23.090Z,36.65
2019-02-03T02:47:51.570Z,37.15
2019-02-03T02:50:28.126Z,38.10
2019-02-03T02:52:56.619Z,35.98
2019-02-03T02:55:25.018Z,35.80
2019-02-03T02:57:53.484Z,34.20
2019-02-03T03:00:26.552Z,34.83
2019-02-03T03:02:55.055Z,36.55
2019-02-03T03:05:23.562Z,34.98
2019-02-03T03:07:52.051Z,33.23
2019-02-03T03:10:21.265Z,33.58
2019-02-03T03:12:50.009Z,33.45
2019-02-03T03:15:20.398Z,31.42
2019-02-03T03:17:49.351Z,33.63
2019-02-03T03:20:20.272Z,32.03
2019-02-03T03:22:49.328Z,33.05
2019-02-03T03:25:19.671Z,29.42
2019-02-03T03:27:48.124Z,28.38
2019-02-03T03:30:21.844Z,26.87
2019-02-03T03:32:50.300Z,27.58
2019-02-03T03:35:18.700Z,22.77
2019-02-03T03:37:47.203Z,23.95
2019-02-03T03:40:18.481Z,23.85
2019-02-03T03:42:46.943Z,22.95
2019-02-03T03:45:15.632Z,23.30
2019-02-03T03:47:44.166Z,23.20
2019-02-03T03:50:14.319Z,20.30
2019-02-03T03:52:42.719Z,23.20
2019-02-03T03:55:11.515Z,22.30
2019-02-03T03:57:39.964Z,21.95
2019-02-03T04:00:11.441Z,21.37
2019-02-03T04:02:39.859Z,20.82
2019-02-03T04:05:11.212Z,20.10
2019-02-03T04:07:39.658Z,18.07
2019-02-03T04:10:11.611Z,17.30
2019-02-03T04:12:40.064Z,18.55
2019-02-03T04:15:11.288Z,18.80
2019-02-03T04:17:40.061Z,21.33
2019-02-03T04:20:23.381Z,20.32
2019-02-03T04:22:52.175Z,19.98
2019-02-03T04:25:20.661Z,19.87
2019-02-03T04:27:49.129Z,21.57
2019-02-03T04:30:20.713Z,21.00
2019-02-03T04:32:49.110Z,21.57
2019-02-03T04:35:17.578Z,22.85
2019-02-03T04:37:45.980Z,22.75
2019-02-03T04:40:16.821Z,25.02
2019-02-03T04:42:45.771Z,24.37
2019-02-03T04:45:16.017Z,25.80
2019-02-03T04:47:44.578Z,25.72
2019-02-03T04:50:18.280Z,25.80
2019-02-03T04:52:46.683Z,26.82
2019-02-03T04:55:17.010Z,25.00
2019-02-03T04:57:45.414Z,26.23
2019-02-03T05:00:19.837Z,26.00
2019-02-03T05:02:48.283Z,26.95
2019-02-03T05:05:16.683Z,31.10
2019-02-03T05:07:45.178Z,30.05
2019-02-03T05:10:15.186Z,32.35
2019-02-03T05:12:43.674Z,32.50
2019-02-03T05:15:20.078Z,34.13
2019-02-03T05:17:48.867Z,36.88
2019-02-03T05:20:19.307Z,39.63
2019-02-03T05:22:47.988Z,42.08
2019-02-03T05:25:16.395Z,40.92
2019-02-03T05:27:44.896Z,43.33
2019-02-03T05:30:30.902Z,40.75
2019-02-03T05:32:59.752Z,41.18
2019-02-03T05:35:28.285Z,39.73
2019-02-03T05:37:56.740Z,40.73
2019-02-03T05:40:25.217Z,40.65
2019-02-03T05:42:53.682Z,43.28
2019-02-03T05:45:23.525Z,42.05
2019-02-03T05:47:52.371Z,39.98
2019-02-03T05:50:21.922Z,40.90
2019-02-03T05:52:50.748Z,39.30
2019-02-03T05:55:20.287Z,40.40
2019-02-03T05:57:48.790Z,41.83
2019-02-03T06:00:33.106Z,42.67
2019-02-03T06:03:01.512Z,41.92
2019-02-03T06:05:29.916Z,40.20
2019-02-03T06:07:58.306Z,39.88
2019-02-03T06:10:26.839Z,45.30
2019-02-03T06:12:55.248Z,42.50
2019-02-03T06:15:23.724Z,44.30
2019-02-03T06:17:52.205Z,44.50
2019-02-03T06:20:20.735Z,43.40
2019-02-03T06:22:49.281Z,43.50
2019-02-03T06:25:18.066Z,41.90
2019-02-03T06:27:46.469Z,46.23
2019-02-03T06:30:23.890Z,46.85
2019-02-03T06:32:52.297Z,47.08
2019-02-03T06:35:20.937Z,47.03
2019-02-03T06:37:49.428Z,46.80
2019-02-03T06:40:18.847Z,48.38
2019-02-03T06:42:47.303Z,45.50
2019-02-03T06:45:33.693Z,46.55
2019-02-03T06:48:02.100Z,50.10
2019-02-03T06:50:30.581Z,47.62
2019-02-03T06:52:59.287Z,51.88
2019-02-03T06:55:27.694Z,49.63
2019-02-03T06:57:56.367Z,50.20
2019-02-03T07:00:24.765Z,49.77
2019-02-03T07:02:53.165Z,47.50
2019-02-03T07:05:21.566Z,45.92
2019-02-03T07:07:50.226Z,48.45
2019-02-03T07:10:18.635Z,43.98
2019-02-03T07:12:47.067Z,42.53
2019-02-03T07:15:15.478Z,43.45
2019-02-03T07:17:44.124Z,39.75
2019-02-03T07:20:14.622Z,42.58
2019-02-03T07:22:43.045Z,38.75
2019-02-03T07:25:11.860Z,39.78
2019-02-03T07:27:40.504Z,40.03
2019-02-03T07:30:14.955Z,42.13
2019-02-03T07:32:43.666Z,39.33
2019-02-03T07:35:12.589Z,40.25
2019-02-03T07:37:40.993Z,38.10
2019-02-03T07:40:12.936Z,41.13
2019-02-03T07:42:41.462Z,41.80
2019-02-03T07:45:10.246Z,40.90
2019-02-03T07:47:38.666Z,38.95
2019-02-03T07:50:14.757Z,42.33
2019-02-03T07:52:43.179Z,38.35
2019-02-03T07:55:12.969Z,39.00
2019-02-03T07:57:41.367Z,39.33
2019-02-03T08:00:18.367Z,40.20
2019-02-03T08:02:47.062Z,39.90
2019-02-03T08:05:15.785Z,43.00
2019-02-03T08:07:44.178Z,46.13
2019-02-03T08:10:24.473Z,38.95
2019-02-03T08:12:46.027Z,39.70
2019-02-03T08:15:19.123Z,42.43
2019-02-03T08:17:47.758Z,42.00
2019-02-03T08:20:19.190Z,40.45
2019-02-03T08:22:47.588Z,36.50
2019-02-03T08:25:17.323Z,40.15
2019-02-03T08:27:46.014Z,39.33
2019-02-03T08:30:20.124Z,37.35
2019-02-03T08:32:48.588Z,35.65
2019-02-03T08:35:19.790Z,33.70
2019-02-03T08:37:47.121Z,38.53
2019-02-03T08:40:18.282Z,38.85
2019-02-03T08:42:46.766Z,33.60
2019-02-03T08:45:17.909Z,35.17
2019-02-03T08:47:46.303Z,33.25
2019-02-03T08:50:19.596Z,33.95
2019-02-03T08:52:51.177Z,33.73
2019-02-03T08:55:18.610Z,33.00
2019-02-03T08:57:47.022Z,31.90
2019-02-03T09:00:27.403Z,31.97
2019-02-03T09:02:55.805Z,30.40
2019-02-03T09:05:24.649Z,33.78
2019-02-03T09:07:53.055Z,29.75
2019-02-03T09:10:23.786Z,30.60
2019-02-03T09:12:52.207Z,31.35
2019-02-03T09:15:28.015Z,29.48
2019-02-03T09:17:56.483Z,30.77
2019-02-03T09:20:27.961Z,28.77
2019-02-03T09:22:56.526Z,28.90
2019-02-03T09:25:25.009Z,27.13
2019-02-03T09:27:53.559Z,26.75
2019-02-03T09:30:24.110Z,26.02
2019-02-03T09:32:52.942Z,28.47
2019-02-03T09:35:21.427Z,26.82
2019-02-03T09:37:50.091Z,27.75
2019-02-03T09:40:26.940Z,25.45
2019-02-03T09:42:55.593Z,25.65
2019-02-03T09:45:24.974Z,24.87
2019-02-03T09:47:53.442Z,27.35
2019-02-03T09:50:26.945Z,24.72
2019-02-03T09:52:57.262Z,24.55
2019-02-03T09:55:26.068Z,23.60
2019-02-03T09:57:54.866Z,23.40
2019-02-03T10:00:25.956Z,22.02
2019-02-03T10:02:55.894Z,24.57
2019-02-03T10:05:24.559Z,22.60
2019-02-03T10:07:53.111Z,22.77
2019-02-03T10:10:24.342Z,21.80
2019-02-03T10:12:52.751Z,21.55
2019-02-03T10:15:21.219Z,21.60
2019-02-03T10:17:49.624Z,22.25
2019-02-03T10:20:22.783Z,18.98
2019-02-03T10:22:51.314Z,18.82
2019-02-03T10:25:22.447Z,20.23
2019-02-03T10:27:51.474Z,19.65
2019-02-03T10:30:21.681Z,18.65
2019-02-03T10:32:50.908Z,18.98
2019-02-03T10:35:23.628Z,18.00
2019-02-03T10:37:51.987Z,16.73
2019-02-03T10:40:23.134Z,16.93
2019-02-03T10:42:53.374Z,16.55
2019-02-03T10:45:23.422Z,14.28
2019-02-03T10:47:52.103Z,14.05
2019-02-03T10:50:26.299Z,14.28
2019-02-03T10:52:54.852Z,13.53
2019-02-03T10:55:23.968Z,12.28
2019-02-03T10:57:52.641Z,12.60
2019-02-03T11:00:26.696Z,12.23
2019-02-03T11:02:55.247Z,10.58
2019-02-03T11:05:26.203Z,10.70
2019-02-03T11:07:55.053Z,10.45
2019-02-03T11:10:27.834Z,10.20
2019-02-03T11:12:56.307Z,9.65
2019-02-03T11:15:45.847Z,10.58
2019-02-03T11:18:14.685Z,9.93
2019-02-03T11:20:43.154Z,10.30
2019-02-03T11:23:11.556Z,8.98
2019-02-03T11:25:39.942Z,10.95
2019-02-03T11:28:08.410Z,9.88
2019-02-03T11:30:36.831Z,9.68
2019-02-03T11:33:08.924Z,9.15
2019-02-03T11:35:37.287Z,9.10
2019-02-03T11:38:06.255Z,9.00
2019-02-03T11:40:36.802Z,8.30
2019-02-03T11:43:06.430Z,8.40
2019-02-03T11:45:42.440Z,8.60
2019-02-03T11:48:14.192Z,7.72
2019-02-03T11:50:44.121Z,9.05
2019-02-03T11:53:15.096Z,7.75
2019-02-03T11:55:43.546Z,8.75
2019-02-03T11:58:17.910Z,6.80
2019-02-03T12:00:46.779Z,6.85
2019-02-03T12:03:15.409Z,7.00
2019-02-03T12:05:43.812Z,6.60
2019-02-03T12:08:12.458Z,6.08
2019-02-03T12:10:41.429Z,6.42
2019-02-03T12:13:10.182Z,5.78
2019-02-03T12:15:38.713Z,6.00
2019-02-03T12:18:15.270Z,6.62
2019-02-03T12:20:44.023Z,5.80
2019-02-03T12:23:12.715Z,5.90
2019-02-03T12:25:42.852Z,4.95
2019-02-03T12:28:11.723Z,5.97
2019-02-03T12:30:40.396Z,4.85
2019-02-03T12:33:09.191Z,6.20
2019-02-03T12:35:37.663Z,5.22
2019-02-03T12:38:06.756Z,4.80
2019-02-03T12:40:38.114Z,5.47
2019-02-03T12:43:06.984Z,5.65
2019-02-03T12:45:35.588Z,4.87
2019-02-03T12:48:05.848Z,4.33
2019-02-03T12:50:34.232Z,3.90
2019-02-03T12:53:02.868Z,3.40
2019-02-03T12:55:34.045Z,4.20
2019-02-03T12:58:02.442Z,3.52
2019-02-03T13:00:37.574Z,3.62
2019-02-03T13:03:08.106Z,3.30
2019-02-03T13:05:36.651Z,3.33
2019-02-03T13:08:06.268Z,3.25
2019-02-03T13:10:36.946Z,3.47
2019-02-03T13:13:06.496Z,3.65
2019-02-03T13:15:40.149Z,53.95
2019-02-03T13:18:09.026Z,3.45
2019-02-03T13:20:37.818Z,4.12
2019-02-03T13:23:06.978Z,3.20
2019-02-03T13:25:35.556Z,3.75
2019-02-03T13:28:04.734Z,3.40
2019-02-03T13:30:38.601Z,3.10
2019-02-03T13:33:07.443Z,3.65
2019-02-03T13:35:35.916Z,3.27
2019-02-03T13:38:04.972Z,4.00
2019-02-03T13:40:33.432Z,3.85
2019-02-03T13:43:02.365Z,3.95
2019-02-03T13:45:30.829Z,3.25
2019-02-03T13:47:59.945Z,3.50
2019-02-03T13:50:29.103Z,2.80
2019-02-03T13:52:57.822Z,3.52
2019-02-03T13:55:27.152Z,4.00
2019-02-03T13:57:55.979Z,3.95
2019-02-03T14:00:27.990Z,3.17
2019-02-03T14:02:56.748Z,3.98
2019-02-03T14:05:25.213Z,2.60
2019-02-03T14:07:53.741Z,2.95
2019-02-03T14:10:27.677Z,3.05
2019-02-03T14:12:57.135Z,2.80
2019-02-03T14:15:26.239Z,2.70
2019-02-03T14:17:54.701Z,2.55
2019-02-03T14:20:25.542Z,3.30
2019-02-03T14:22:54.115Z,3.45
2019-02-03T14:25:23.062Z,2.83
2019-02-03T14:27:51.638Z,2.70
2019-02-03T14:30:22.539Z,2.80
2019-02-03T14:32:50.993Z,2.85
2019-02-03T14:35:19.460Z,2.33
2019-02-03T14:37:47.856Z,2.90
2019-02-03T14:40:19.034Z,2.80
2019-02-03T14:42:48.496Z,3.22
2019-02-03T14:45:20.089Z,2.70
2019-02-03T14:47:49.871Z,2.83
2019-02-03T14:50:23.863Z,2.77
2019-02-03T14:52:58.507Z,2.45
2019-02-03T14:55:30.190Z,2.40
2019-02-03T14:57:58.587Z,1.98
2019-02-03T15:00:29.710Z,2.45
2019-02-03T15:02:59.045Z,2.50
2019-02-03T15:05:28.024Z,3.02
2019-02-03T15:07:56.422Z,2.85
2019-02-03T15:10:24.862Z,2.20
2019-02-03T15:12:53.314Z,3.02
2019-02-03T15:15:27.369Z,2.35
2019-02-03T15:17:56.141Z,2.50
2019-02-03T15:20:26.074Z,2.80
2019-02-03T15:22:54.611Z,2.90
2019-02-03T15:25:23.369Z,2.70
2019-02-03T15:27:51.757Z,2.83
2019-02-03T15:30:45.097Z,3.05
2019-02-03T15:33:13.482Z,2.77
2019-02-03T15:35:41.873Z,1.92
2019-02-03T15:38:10.338Z,2.80
2019-02-03T15:40:38.812Z,2.70
2019-02-03T15:43:07.528Z,2.90
2019-02-03T15:45:35.988Z,3.25
2019-02-03T15:48:05.552Z,3.35
2019-02-03T15:50:34.299Z,3.20
2019-02-03T15:53:02.999Z,3.55
2019-02-03T15:55:37.264Z,2.70
2019-02-03T15:58:08.159Z,2.40
2019-02-03T16:00:48.274Z,3.55
2019-02-03T16:03:16.659Z,3.05
2019-02-03T16:05:45.098Z,2.90
2019-02-03T16:08:13.754Z,3.20
2019-02-03T16:10:42.604Z,2.67
2019-02-03T16:13:12.066Z,2.70
2019-02-03T16:15:40.466Z,2.67
2019-02-03T16:18:09.640Z,3.10
2019-02-03T16:20:38.021Z,3.25
2019-02-03T16:23:06.651Z,3.60
2019-02-03T16:25:36.276Z,3.05
2019-02-03T16:28:05.430Z,2.80
2019-02-03T16:30:41.051Z,4.15
2019-02-03T16:33:13.337Z,4.37
2019-02-03T16:35:42.030Z,4.12
2019-02-03T16:38:22.808Z,3.37
2019-02-03T16:40:41.889Z,3.35
2019-02-03T16:43:10.301Z,3.50
2019-02-03T16:45:40.908Z,3.20
2019-02-03T16:48:09.393Z,3.27
2019-02-03T16:50:37.874Z,3.05
2019-02-03T16:53:07.890Z,2.60
2019-02-03T16:55:36.524Z,3.35
2019-02-03T16:58:05.810Z,3.67
2019-02-03T17:00:34.210Z,3.10
2019-02-03T17:03:03.145Z,3.33
2019-02-03T17:05:31.982Z,2.85
2019-02-03T17:08:09.133Z,3.22
2019-02-03T17:10:37.808Z,3.58
2019-02-03T17:13:06.482Z,3.92
2019-02-03T17:15:38.186Z,2.77
2019-02-03T17:18:08.814Z,3.05
2019-02-03T17:20:37.506Z,3.90
2019-02-03T17:23:06.481Z,3.02
2019-02-03T17:25:44.303Z,3.05
2019-02-03T17:28:13.136Z,3.60
2019-02-03T17:30:41.536Z,3.55
2019-02-03T17:33:16.713Z,3.50
2019-02-03T17:35:53.953Z,2.90
2019-02-03T17:38:15.230Z,3.37
2019-02-03T17:40:44.626Z,3.25
2019-02-03T17:43:13.092Z,3.37
2019-02-03T17:45:41.469Z,4.28
2019-02-03T17:48:09.950Z,4.85
2019-02-03T17:50:38.369Z,4.95
2019-02-03T17:53:07.158Z,4.58
2019-02-03T17:55:35.551Z,4.28
2019-02-03T17:58:04.310Z,3.70
2019-02-03T18:00:38.068Z,4.17
2019-02-03T18:03:06.999Z,3.87
2019-02-03T18:05:35.449Z,3.58
2019-02-03T18:08:04.707Z,4.72
2019-02-03T18:10:33.477Z,4.70
2019-02-03T18:13:02.863Z,4.80
2019-02-03T18:15:31.242Z,4.75
2019-02-03T18:20:57.899Z,4.35
2019-02-03T18:23:54.865Z,3.95
2019-02-03T18:26:45.778Z,3.62
2019-02-03T18:29:19.958Z,4.62
2019-02-03T18:31:50.674Z,4.20
2019-02-03T18:34:19.425Z,4.70
2019-02-03T18:36:49.974Z,3.65
2019-02-03T18:39:23.009Z,4.75
2019-02-03T18:41:51.749Z,4.45
2019-02-03T18:44:22.103Z,4.37
2019-02-03T18:46:52.758Z,4.37
2019-02-03T18:52:14.728Z,3.37
2019-02-03T18:54:46.570Z,4.05
2019-02-03T18:57:19.516Z,3.55
2019-02-03T18:59:49.786Z,3.37
2019-02-03T19:02:18.805Z,3.80
2019-02-03T19:04:51.961Z,3.80
2019-02-03T19:07:24.915Z,4.35
2019-02-03T19:09:53.727Z,3.85
2019-02-03T19:12:24.195Z,4.00
2019-02-03T19:17:54.416Z,3.83
2019-02-03T19:20:34.211Z,4.05
2019-02-03T19:23:03.087Z,3.10
2019-02-03T19:25:34.927Z,4.55
2019-02-03T19:28:03.714Z,4.90
2019-02-03T19:33:23.355Z,4.60
2019-02-03T19:38:44.021Z,4.95
2019-02-03T19:41:12.467Z,5.17
2019-02-03T19:43:44.185Z,6.58
2019-02-03T19:46:24.206Z,6.92
2019-02-03T19:48:52.799Z,5.90
2019-02-03T19:51:21.414Z,5.83
2019-02-03T19:53:49.864Z,6.75
2019-02-03T19:56:18.580Z,6.22
2019-02-03T19:58:47.018Z,6.47
2019-02-03T20:01:15.413Z,5.60
2019-02-03T20:03:44.007Z,5.87
2019-02-03T20:06:12.413Z,5.37
2019-02-03T20:08:40.803Z,6.60
2019-02-03T20:11:09.274Z,5.20
2019-02-03T20:13:37.671Z,5.70
2019-02-03T20:16:06.279Z,5.22
2019-02-03T20:18:34.960Z,5.03
2019-02-03T20:21:03.424Z,6.12
2019-02-03T20:23:32.870Z,5.10
2019-02-03T20:26:01.329Z,5.67
2019-02-03T20:28:29.886Z,4.87
2019-02-03T20:30:58.353Z,5.95
2019-02-03T20:33:27.233Z,5.92
2019-02-03T20:35:55.658Z,5.95
2019-02-03T20:38:24.042Z,5.08
2019-02-03T20:40:52.467Z,5.90
2019-02-03T20:43:21.890Z,5.80
2019-02-03T20:45:50.350Z,6.55
2019-02-03T20:48:19.054Z,7.00
2019-02-03T20:50:47.530Z,6.65
2019-02-03T20:53:15.915Z,7.25
2019-02-03T20:55:44.606Z,6.50
2019-02-03T20:58:14.025Z,7.60
2019-02-03T21:00:42.601Z,6.55
2019-02-03T21:03:11.086Z,8.30
2019-02-03T21:05:39.626Z,6.80
2019-02-03T21:08:08.043Z,8.20
2019-02-03T21:10:36.786Z,7.60
2019-02-03T21:13:11.302Z,8.93
2019-02-03T21:15:36.323Z,7.33
2019-02-03T21:18:07.727Z,9.15
2019-02-03T21:20:35.319Z,8.48
2019-02-03T21:23:04.320Z,7.95
2019-02-03T21:25:33.036Z,7.92
2019-02-03T21:28:01.722Z,9.30
2019-02-03T21:30:35.326Z,18.05
2019-02-03T21:33:04.277Z,15.05
2019-02-03T21:35:34.829Z,11.08
2019-02-03T21:38:05.173Z,14.70
2019-02-03T21:40:33.712Z,12.63
2019-02-03T21:43:02.436Z,12.63
2019-02-03T21:45:30.840Z,13.88
2019-02-03T21:47:59.629Z,12.03
2019-02-03T21:50:30.342Z,11.55
2019-02-03T21:52:58.777Z,10.95
2019-02-03T21:55:27.821Z,11.45
2019-02-03T21:57:56.531Z,9.23
2019-02-03T22:00:32.999Z,10.63
2019-02-03T22:03:01.758Z,12.35
2019-02-03T22:05:36.141Z,11.75
2019-02-03T22:08:05.321Z,9.68
2019-02-03T22:10:39.889Z,9.18
2019-02-03T22:13:08.606Z,10.18
2019-02-03T22:15:38.196Z,8.95
2019-02-03T22:18:07.033Z,8.53
2019-02-03T22:20:35.442Z,8.78
2019-02-03T22:23:05.123Z,10.63
2019-02-03T22:25:34.030Z,9.55
2019-02-03T22:28:02.421Z,9.40
2019-02-03T22:30:38.678Z,10.68
2019-02-03T22:33:07.151Z,9.25
2019-02-03T22:35:35.618Z,8.95
2019-02-03T22:38:04.269Z,8.18
2019-02-03T22:40:32.678Z,9.38
2019-02-03T22:43:08.034Z,8.28
2019-02-03T22:45:36.677Z,9.30
2019-02-03T22:48:06.245Z,9.43
2019-02-03T22:50:34.709Z,9.58
2019-02-03T22:53:03.353Z,9.65
2019-02-03T22:55:31.930Z,9.40
2019-02-03T22:58:00.457Z,8.88
2019-02-03T23:00:52.299Z,8.15
2019-02-03T23:03:23.685Z,8.10
2019-02-03T23:05:53.226Z,7.58
2019-02-03T23:08:21.598Z,9.58
2019-02-03T23:10:50.310Z,8.68
2019-02-03T23:13:18.966Z,8.95
2019-02-03T23:15:48.043Z,7.47
2019-02-03T23:18:16.680Z,7.95
2019-02-03T23:20:45.558Z,7.10
2019-02-03T23:23:13.949Z,8.90
2019-02-03T23:25:42.422Z,8.50
2019-02-03T23:28:11.058Z,8.30
2019-02-03T23:30:39.840Z,7.33
2019-02-03T23:33:08.478Z,8.33
2019-02-03T23:35:36.896Z,7.47
2019-02-03T23:38:05.293Z,8.38
2019-02-03T23:40:33.694Z,9.30
2019-02-03T23:43:02.095Z,9.60
2019-02-03T23:45:30.996Z,9.70
2019-02-03T23:47:59.458Z,10.43
2019-02-03T23:50:27.853Z,10.03
2019-02-03T23:52:56.261Z,9.83
2019-02-03T23:55:24.654Z,9.53
2019-02-03T23:57:53.398Z,9.03
